createdAt,value
2022-10-03T00:00:33.873Z,10.66
2022-10-03T00:03:59.137Z,10.65
2022-10-03T00:07:23.248Z,10.65
2022-10-03T00:10:47.617Z,10.68
2022-10-03T00:14:09.021Z,10.68
2022-10-03T00:17:31.232Z,10.69
2022-10-03T00:21:06.804Z,10.70
2022-10-03T00:24:34.710Z,10.69
2022-10-03T00:27:55.291Z,10.70
2022-10-03T00:31:20.460Z,10.70
2022-10-03T00:34:57.205Z,10.70
2022-10-03T00:38:29.633Z,10.64
2022-10-03T00:42:44.377Z,10.54
2022-10-03T00:46:43.989Z,10.59
2022-10-03T00:50:23.188Z,10.57
2022-10-03T00:53:54.208Z,10.53
2022-10-03T00:57:29.317Z,10.52
2022-10-03T01:00:47.006Z,10.50
2022-10-03T01:04:15.565Z,10.52
2022-10-03T01:07:51.045Z,10.46
2022-10-03T01:11:15.247Z,10.45
2022-10-03T01:14:49.957Z,10.45
2022-10-03T01:18:19.462Z,10.47
2022-10-03T01:21:45.916Z,10.44
2022-10-03T01:25:12.700Z,10.38
2022-10-03T01:29:08.518Z,10.27
2022-10-03T01:32:29.663Z,10.25
2022-10-03T01:35:54.017Z,10.23
2022-10-03T01:39:15.629Z,10.23
2022-10-03T01:42:43.533Z,10.18
2022-10-03T01:46:10.319Z,10.22
2022-10-03T01:49:32.950Z,10.20
2022-10-03T01:52:54.852Z,10.24
2022-10-03T01:56:16.379Z,10.27
2022-10-03T01:59:41.838Z,10.27
2022-10-03T02:03:04.468Z,10.26
2022-10-03T02:06:27.701Z,10.25
2022-10-03T02:09:53.982Z,10.31
2022-10-03T02:13:19.078Z,10.31
2022-10-03T02:16:43.838Z,10.34
2022-10-03T02:20:09.490Z,10.35
2022-10-03T02:23:48.800Z,10.31
2022-10-03T02:27:27.473Z,10.34
2022-10-03T02:30:50.293Z,10.30
2022-10-03T02:34:39.288Z,10.28
2022-10-03T02:38:35.271Z,10.27
2022-10-03T02:42:32.752Z,10.27
2022-10-03T02:46:40.150Z,10.25
2022-10-03T02:50:41.296Z,10.23
2022-10-03T02:54:50.053Z,10.23
2022-10-03T02:58:50.016Z,10.19
2022-10-03T03:03:07.007Z,10.18
2022-10-03T03:07:03.284Z,10.16
2022-10-03T03:11:08.882Z,10.17
2022-10-03T03:15:19.059Z,10.17
2022-10-03T03:18:42.725Z,10.18
2022-10-03T03:22:06.710Z,10.19
2022-10-03T03:25:34.955Z,10.20
2022-10-03T03:28:58.359Z,10.24
2022-10-03T03:32:22.893Z,10.27
2022-10-03T03:35:49.121Z,10.28
2022-10-03T03:39:11.962Z,10.27
2022-10-03T03:43:09.589Z,10.25
2022-10-03T03:46:41.974Z,10.29
2022-10-03T03:50:14.420Z,10.31
2022-10-03T03:54:01.308Z,10.31
2022-10-03T03:57:45.509Z,10.34
2022-10-03T04:01:18.893Z,10.33
2022-10-03T04:05:04.301Z,10.37
2022-10-03T04:08:44.680Z,10.33
2022-10-03T04:12:13.447Z,10.31
2022-10-03T04:15:49.346Z,10.34
2022-10-03T04:19:09.977Z,10.37
2022-10-03T04:22:36.443Z,10.36
2022-10-03T04:26:09.063Z,10.38
2022-10-03T04:29:56.761Z,10.38
2022-10-03T04:33:28.626Z,10.41
2022-10-03T04:37:40.642Z,10.41
2022-10-03T04:41:02.659Z,10.43
2022-10-03T04:44:35.144Z,10.43
2022-10-03T04:47:58.918Z,10.47
2022-10-03T04:51:21.507Z,10.48
2022-10-03T04:54:49.548Z,10.46
2022-10-03T04:58:11.072Z,10.47
2022-10-03T05:01:32.088Z,10.50
2022-10-03T05:05:01.047Z,10.52
2022-10-03T05:08:28.655Z,10.50
2022-10-03T05:11:57.301Z,10.48
2022-10-03T05:15:27.696Z,10.48
2022-10-03T05:18:50.589Z,10.51
2022-10-03T05:22:12.789Z,10.50
2022-10-03T05:25:49.394Z,10.53
2022-10-03T05:29:10.852Z,10.51
2022-10-03T05:32:33.017Z,10.57
2022-10-03T05:36:06.440Z,10.60
2022-10-03T05:39:42.904Z,10.61
2022-10-03T05:43:17.523Z,10.60
2022-10-03T05:47:15.969Z,10.61
2022-10-03T05:51:14.512Z,10.56
2022-10-03T05:55:07.810Z,10.54
2022-10-03T05:58:56.670Z,10.49
2022-10-03T06:02:59.415Z,10.47
2022-10-03T06:06:27.574Z,10.52
2022-10-03T06:10:26.508Z,10.57
2022-10-03T06:13:59.892Z,10.60
2022-10-03T06:17:43.268Z,10.56
2022-10-03T06:21:55.680Z,10.56
2022-10-03T06:26:01.504Z,10.58
2022-10-03T06:30:18.896Z,10.63
2022-10-03T06:34:31.593Z,10.65
2022-10-03T06:38:31.881Z,10.70
2022-10-03T06:42:28.628Z,11.22
2022-10-03T06:46:23.082Z,11.51
2022-10-03T06:50:24.329Z,11.73
2022-10-03T06:54:20.330Z,11.93
2022-10-03T06:58:06.638Z,12.26
2022-10-03T07:02:02.597Z,12.14
2022-10-03T07:06:07.118Z,11.97
2022-10-03T07:10:12.628Z,11.88
2022-10-03T07:14:03.847Z,11.71
2022-10-03T07:17:57.184Z,11.58
2022-10-03T07:21:37.893Z,11.54
2022-10-03T07:25:47.790Z,11.32
2022-10-03T07:29:29.535Z,11.27
2022-10-03T07:33:16.441Z,11.19
2022-10-03T07:37:15.653Z,11.17
2022-10-03T07:40:54.056Z,11.17
2022-10-03T07:45:01.737Z,11.11
2022-10-03T07:48:59.419Z,11.05
2022-10-03T07:52:40.091Z,11.00
2022-10-03T07:56:11.193Z,11.01
2022-10-03T08:00:03.384Z,10.99
2022-10-03T08:03:50.477Z,11.04
2022-10-03T08:07:21.188Z,11.03
2022-10-03T08:11:26.846Z,11.04
2022-10-03T08:14:52.554Z,11.08
2022-10-03T08:19:08.402Z,11.05
2022-10-03T08:22:30.545Z,10.97
2022-10-03T08:26:04.925Z,10.93
2022-10-03T08:30:08.674Z,10.96
2022-10-03T08:33:50.179Z,10.93
2022-10-03T08:37:51.783Z,10.91
2022-10-03T08:41:56.889Z,10.95
2022-10-03T08:46:01.464Z,10.95
2022-10-03T08:49:42.909Z,10.99
2022-10-03T08:53:26.878Z,10.94
2022-10-03T08:57:11.911Z,11.01
2022-10-03T09:00:31.332Z,11.06
2022-10-03T09:04:31.861Z,11.14
2022-10-03T09:08:40.625Z,11.28
2022-10-03T09:12:35.938Z,11.43
2022-10-03T09:16:31.977Z,11.49
2022-10-03T09:20:39.429Z,11.55
2022-10-03T09:24:39.601Z,11.59
2022-10-03T09:28:32.393Z,11.66
2022-10-03T09:32:34.536Z,11.64
2022-10-03T09:36:06.843Z,11.56
2022-10-03T09:40:22.451Z,11.59
2022-10-03T09:44:24.900Z,11.60
2022-10-03T09:48:09.561Z,11.65
2022-10-03T09:51:40.777Z,11.71
2022-10-03T09:55:35.790Z,11.73
2022-10-03T09:59:12.440Z,11.74
2022-10-03T10:03:14.867Z,11.79
2022-10-03T10:06:51.372Z,11.75
2022-10-03T10:10:49.621Z,11.70
2022-10-03T10:14:45.785Z,11.58
2022-10-03T10:18:36.154Z,11.53
2022-10-03T10:22:05.727Z,11.55
2022-10-03T10:25:46.686Z,11.53
2022-10-03T10:29:51.096Z,11.48
2022-10-03T10:34:08.073Z,11.40
2022-10-03T10:38:08.684Z,11.44
2022-10-03T10:42:16.825Z,11.35
2022-10-03T10:46:17.784Z,11.33
2022-10-03T10:50:42.795Z,11.25
2022-10-03T10:54:44.611Z,11.18
2022-10-03T10:58:50.482Z,11.16
2022-10-03T11:02:46.231Z,11.09
2022-10-03T11:07:02.273Z,11.10
2022-10-03T11:10:52.886Z,11.05
2022-10-03T11:14:42.587Z,11.03
2022-10-03T11:18:56.300Z,11.05
2022-10-03T11:23:04.832Z,11.07
2022-10-03T11:27:09.624Z,11.03
2022-10-03T11:30:54.909Z,11.05
2022-10-03T11:35:01.304Z,11.05
2022-10-03T11:38:33.580Z,11.03
2022-10-03T11:41:59.580Z,11.00
2022-10-03T11:45:25.388Z,10.99
2022-10-03T11:48:49.589Z,11.04
2022-10-03T11:52:11.908Z,11.00
2022-10-03T11:55:37.182Z,11.05
2022-10-03T11:59:20.465Z,11.01
2022-10-03T12:03:20.709Z,11.04
2022-10-03T12:10:04.540Z,11.11
2022-10-03T12:13:26.507Z,11.13
2022-10-03T12:16:51.568Z,11.13
2022-10-03T12:20:15.545Z,11.17
2022-10-03T12:23:43.593Z,11.19
2022-10-03T12:27:06.561Z,11.17
2022-10-03T12:30:26.965Z,11.21
2022-10-03T12:33:57.909Z,11.26
2022-10-03T12:40:34.584Z,11.34
2022-10-03T12:44:03.962Z,11.38
2022-10-03T12:47:56.850Z,11.46
2022-10-03T12:51:19.613Z,11.52
2022-10-03T12:58:00.660Z,11.62
2022-10-03T13:01:27.572Z,11.69
2022-10-03T13:04:54.353Z,11.72
2022-10-03T13:11:45.202Z,11.77
2022-10-03T13:15:52.452Z,11.75
2022-10-03T13:19:15.323Z,11.72
2022-10-03T13:25:51.471Z,11.71
2022-10-03T13:29:40.724Z,11.71
2022-10-03T13:33:00.486Z,11.62
2022-10-03T13:36:33.329Z,11.60
2022-10-03T13:40:06.925Z,11.65
2022-10-03T13:43:31.530Z,11.67
2022-10-03T13:46:59.797Z,11.67
2022-10-03T13:50:27.052Z,11.68
2022-10-03T13:57:05.425Z,11.70
2022-10-03T14:00:25.801Z,11.68
2022-10-03T14:03:46.684Z,11.69
2022-10-03T14:12:54.957Z,11.75
2022-10-03T14:16:10.714Z,11.76
2022-10-03T14:19:36.078Z,11.71
2022-10-03T14:26:16.647Z,11.70
2022-10-03T14:29:49.788Z,11.57
2022-10-03T14:33:32.087Z,11.58
2022-10-03T14:36:52.700Z,11.64
2022-10-03T14:40:24.162Z,11.67
2022-10-03T14:43:48.815Z,11.66
2022-10-03T14:47:19.432Z,11.68
2022-10-03T14:50:40.039Z,11.68
2022-10-03T14:54:09.140Z,11.60
2022-10-03T14:58:05.630Z,11.63
2022-10-03T15:01:11.598Z,11.60
2022-10-03T15:04:39.908Z,11.64
2022-10-03T15:14:29.043Z,11.72
2022-10-03T15:17:54.741Z,11.73
2022-10-03T15:21:20.669Z,11.76
2022-10-03T15:24:44.966Z,11.69
2022-10-03T15:28:07.300Z,11.68
2022-10-03T15:31:32.188Z,11.60
2022-10-03T15:34:52.457Z,11.49
2022-10-03T15:38:18.115Z,11.54
2022-10-03T15:41:49.970Z,11.53
2022-10-03T15:45:14.048Z,11.57
2022-10-03T15:48:37.448Z,11.54
2022-10-03T15:52:04.630Z,11.42
2022-10-03T15:55:34.540Z,11.43
2022-10-03T15:59:05.914Z,11.41
2022-10-03T16:02:31.315Z,11.38
2022-10-03T16:06:01.634Z,11.31
2022-10-03T16:09:25.124Z,11.36
2022-10-03T16:12:59.176Z,11.38
2022-10-03T16:16:27.217Z,11.38
2022-10-03T16:19:52.887Z,11.33
2022-10-03T16:26:34.611Z,11.36
2022-10-03T16:30:05.080Z,11.34
2022-10-03T16:33:28.372Z,11.36
2022-10-03T16:36:54.096Z,11.33
2022-10-03T16:43:27.642Z,11.31
2022-10-03T16:46:46.433Z,11.31
2022-10-03T16:50:20.086Z,11.33
2022-10-03T16:53:38.167Z,11.33
2022-10-03T16:57:00.268Z,11.31
2022-10-03T17:00:26.353Z,11.28
2022-10-03T17:03:48.751Z,11.26
2022-10-03T17:07:10.297Z,11.26
2022-10-03T17:13:50.775Z,11.23
2022-10-03T17:17:12.136Z,11.21
2022-10-03T17:20:36.890Z,11.15
2022-10-03T17:27:13.874Z,11.15
2022-10-03T17:30:35.498Z,11.11
2022-10-03T17:33:55.819Z,11.09
2022-10-03T17:37:37.424Z,11.10
2022-10-03T17:41:11.766Z,11.10
2022-10-03T17:44:38.077Z,11.08
2022-10-03T17:48:02.107Z,11.07
2022-10-03T17:51:44.280Z,11.08
2022-10-03T17:55:04.265Z,11.05
2022-10-03T17:58:26.897Z,11.04
2022-10-03T18:01:48.067Z,11.05
2022-10-03T18:05:11.158Z,11.06
2022-10-03T18:08:34.101Z,11.07
2022-10-03T18:11:53.012Z,11.07
2022-10-03T18:15:47.843Z,11.05
2022-10-03T18:19:28.079Z,11.07
2022-10-03T18:22:49.892Z,11.06
2022-10-03T18:26:25.679Z,11.08
2022-10-03T18:29:37.330Z,11.10
2022-10-03T18:32:56.687Z,11.09
2022-10-03T18:36:16.471Z,11.06
2022-10-03T18:39:36.340Z,11.07
2022-10-03T18:42:55.459Z,11.06
2022-10-03T18:46:26.195Z,11.09
2022-10-03T18:49:45.810Z,11.06
2022-10-03T18:58:01.013Z,11.07
2022-10-03T19:01:25.804Z,11.07
2022-10-03T19:04:49.079Z,11.03
2022-10-03T19:08:37.227Z,10.99
2022-10-03T19:11:59.102Z,10.92
2022-10-03T19:15:24.228Z,10.84
2022-10-03T19:18:46.889Z,10.76
2022-10-03T19:22:04.612Z,10.69
2022-10-03T19:25:29.010Z,10.70
2022-10-03T19:28:50.821Z,10.66
2022-10-03T19:32:13.817Z,10.61
2022-10-03T19:35:32.603Z,10.62
2022-10-03T19:42:11.001Z,10.59
2022-10-03T19:45:27.994Z,10.59
2022-10-03T19:48:48.673Z,10.58
2022-10-03T19:52:27.396Z,10.60
2022-10-03T19:59:09.397Z,10.50
2022-10-03T20:02:31.989Z,10.56
2022-10-03T20:05:55.137Z,10.58
2022-10-03T20:09:15.757Z,10.58
2022-10-03T20:12:37.573Z,10.59
2022-10-03T20:15:57.305Z,10.59
2022-10-03T20:19:20.093Z,10.60
2022-10-03T20:22:39.926Z,10.59
2022-10-03T20:26:02.421Z,10.56
2022-10-03T20:29:31.900Z,10.57
2022-10-03T20:32:52.669Z,10.58
2022-10-03T20:36:14.703Z,10.60
2022-10-03T20:39:35.160Z,10.63
2022-10-03T20:42:54.694Z,10.62
2022-10-03T20:46:24.217Z,10.63
2022-10-03T20:49:46.083Z,10.61
2022-10-03T20:53:06.263Z,10.66
2022-10-03T20:56:24.155Z,10.64
2022-10-03T20:59:53.474Z,10.63
2022-10-03T21:03:11.532Z,10.65
2022-10-03T21:06:32.127Z,10.62
2022-10-03T21:13:07.706Z,10.62
2022-10-03T21:16:31.166Z,10.64
2022-10-03T21:19:56.256Z,10.65
2022-10-03T21:23:20.532Z,10.63
2022-10-03T21:26:40.284Z,10.59
2022-10-03T21:30:10.395Z,10.57
2022-10-03T21:33:32.483Z,10.55
2022-10-03T21:36:59.230Z,10.54
2022-10-03T21:40:27.162Z,10.50
2022-10-03T21:43:57.083Z,10.50
2022-10-03T21:47:22.969Z,10.50
2022-10-03T21:50:44.345Z,10.47
2022-10-03T21:54:09.018Z,10.48
2022-10-03T21:57:30.000Z,10.50
2022-10-03T22:01:09.663Z,10.52
2022-10-03T22:04:31.263Z,10.51
2022-10-03T22:07:49.748Z,10.44
2022-10-03T22:11:15.953Z,10.44
2022-10-03T22:14:43.721Z,10.41
2022-10-03T22:18:05.846Z,10.46
2022-10-03T22:21:26.795Z,10.45
2022-10-03T22:24:53.507Z,10.46
2022-10-03T22:28:15.974Z,10.43
2022-10-03T22:31:40.463Z,10.44
2022-10-03T22:35:02.854Z,10.43
2022-10-03T22:38:20.353Z,10.40
2022-10-03T22:41:39.183Z,10.41
2022-10-03T22:44:59.805Z,10.43
2022-10-03T22:48:22.140Z,10.40
2022-10-03T22:51:41.105Z,10.42
2022-10-03T22:54:56.184Z,10.38
2022-10-03T22:58:13.898Z,10.38
2022-10-03T23:01:31.650Z,10.35
2022-10-03T23:04:51.952Z,10.38
2022-10-03T23:08:18.836Z,10.38
2022-10-03T23:11:38.033Z,10.38
2022-10-03T23:14:57.402Z,10.36
2022-10-03T23:18:54.485Z,10.39
2022-10-03T23:22:14.351Z,10.41
2022-10-03T23:28:52.323Z,10.41
2022-10-03T23:32:13.299Z,10.42
2022-10-03T23:35:42.181Z,10.45
2022-10-03T23:39:09.035Z,10.42
2022-10-03T23:45:43.043Z,10.41
2022-10-03T23:49:02.275Z,10.43
2022-10-03T23:52:23.913Z,10.43
2022-10-03T23:55:43.805Z,10.39
2022-10-03T23:59:15.759Z,10.41
